Time;durP1;ratioP1;P1;durP2;ratioP2;P2;SDS_P1;SDS_P2;PMS_P1;PMS_P2;Temp;Humidity;BMP_temperature;BMP_pressure;BME280_temperature;BME280_humidity;BME280_pressure;Samples;Min_cycle;Max_cycle;Signal;HPM_P1;HPM_P2
2023/08/31 00:01:33;;;;;;;2.00;0.28;;;;;;;9.49;60.12;100530.94;4980394;28;20400;-70
2023/08/31 00:03:59;;;;;;;3.70;0.20;;;;;;;9.62;60.03;100534.75;4978213;28;20420;-72
2023/08/31 00:06:25;;;;;;;1.05;0.20;;;;;;;9.32;61.04;100535.09;4982221;28;20053;-71
2023/08/31 00:08:51;;;;;;;3.22;0.13;;;;;;;9.67;60.38;100534.56;4983775;28;20073;-71
2023/08/31 00:11:16;;;;;;;0.90;0.20;;;;;;;9.76;60.30;100523.72;4982266;28;20034;-73
2023/08/31 00:13:42;;;;;;;0.95;0.10;;;;;;;9.85;60.39;100520.75;4986083;28;20060;-71
2023/08/31 00:16:09;;;;;;;1.45;0.20;;;;;;;9.77;60.23;100530.66;4978110;28;20637;-71
2023/08/31 00:18:36;;;;;;;2.17;0.20;;;;;;;10.03;59.76;100529.56;4980624;28;20053;-71
2023/08/31 00:21:02;;;;;;;0.60;0.10;;;;;;;10.07;59.21;100523.28;4982627;28;20205;-71
2023/08/31 00:23:29;;;;;;;4.47;0.20;;;;;;;10.01;59.16;100528.78;4991476;28;20049;-71
2023/08/31 00:25:57;;;;;;;2.63;0.20;;;;;;;9.93;59.15;100516.06;4979537;28;20038;-71
2023/08/31 00:28:22;;;;;;;7.10;0.55;;;;;;;9.87;59.37;100518.94;4982136;28;20538;-72
2023/08/31 00:30:48;;;;;;;4.78;0.40;;;;;;;9.63;60.26;100520.78;4988412;28;20030;-72
2023/08/31 00:33:15;;;;;;;5.10;0.47;;;;;;;9.71;60.13;100520.47;4980650;28;20065;-72
2023/08/31 00:35:46;;;;;;;1.95;0.30;;;;;;;9.94;59.47;100515.13;4970599;28;20062;-72
2023/08/31 00:38:12;;;;;;;1.20;0.30;;;;;;;9.87;59.10;100515.47;4981717;28;20048;-72
2023/08/31 00:40:42;;;;;;;2.40;0.20;;;;;;;9.89;58.98;100513.66;4987124;28;20057;-72
2023/08/31 00:43:07;;;;;;;1.95;0.20;;;;;;;9.88;58.62;100509.31;4980647;28;20065;-73
2023/08/31 00:45:34;;;;;;;2.28;0.20;;;;;;;9.78;58.56;100507.06;4964193;28;20412;-73
2023/08/31 00:48:00;;;;;;;0.55;0.20;;;;;;;9.75;58.69;100515.06;4986730;28;20045;-73
2023/08/31 00:50:26;;;;;;;2.35;0.20;;;;;;;9.66;58.49;100506.78;4986206;28;20044;-74
2023/08/31 00:52:52;;;;;;;1.42;0.20;;;;;;;9.64;58.65;100513.81;4986361;28;20128;-74
2023/08/31 00:55:17;;;;;;;1.10;0.22;;;;;;;9.55;58.40;100515.03;4981389;28;20030;-71
2023/08/31 00:57:44;;;;;;;0.63;0.20;;;;;;;9.49;58.84;100516.13;4989593;28;20512;-70
2023/08/31 01:00:10;;;;;;;0.75;0.20;;;;;;;9.43;58.80;100516.38;4981138;28;20052;-70
2023/08/31 01:02:40;;;;;;;2.50;0.40;;;;;;;9.30;59.25;100515.19;4980335;28;20062;-70
2023/08/31 01:05:29;;;;;;;2.35;0.88;;;;;;;9.06;59.79;100517.88;4982418;28;20030;-71
2023/08/31 01:08:16;;;;;;;1.67;0.70;;;;;;;9.22;59.21;100518.09;4982633;28;20145;-71
2023/08/31 01:11:25;;;;;;;3.22;0.82;;;;;;;9.15;59.10;100527.09;4982150;28;20037;-73
2023/08/31 01:14:05;;;;;;;3.53;0.95;;;;;;;9.13;59.15;100521.06;4977160;28;20042;-74
2023/08/31 01:16:34;;;;;;;1.20;0.63;;;;;;;9.08;59.57;100520.41;4969963;28;20064;-74
2023/08/31 01:19:04;;;;;;;3.13;0.80;;;;;;;9.11;59.16;100521.13;4970299;28;20045;-75
2023/08/31 01:21:43;;;;;;;2.38;0.50;;;;;;;9.08;59.02;100517.81;4986907;28;20036;-74
2023/08/31 01:24:11;;;;;;;2.65;0.80;;;;;;;9.07;59.40;100514.34;4994405;28;20050;-74
2023/08/31 01:26:37;;;;;;;2.80;0.93;;;;;;;9.05;59.13;100517.91;4976734;28;20034;-75
2023/08/31 01:29:03;;;;;;;2.15;0.50;;;;;;;8.97;59.60;100526.88;4987460;28;20095;-75
2023/08/31 01:31:29;;;;;;;1.83;0.98;;;;;;;8.91;59.44;100529.72;4968659;28;20061;-75
2023/08/31 01:33:54;;;;;;;2.88;1.25;;;;;;;8.79;59.82;100531.97;4977867;28;20066;-73
2023/08/31 01:36:27;;;;;;;2.50;1.23;;;;;;;8.60;60.42;100523.94;4982040;28;20061;-74
2023/08/31 01:39:10;;;;;;;2.05;0.90;;;;;;;8.63;59.97;100531.63;4985241;28;20077;-74
2023/08/31 01:41:40;;;;;;;3.80;1.30;;;;;;;8.65;60.13;100529.81;4987600;28;20157;-74
2023/08/31 01:44:08;;;;;;;3.97;1.08;;;;;;;8.72;59.41;100532.19;4979788;28;20265;-75
2023/08/31 01:46:34;;;;;;;2.13;0.90;;;;;;;8.69;59.67;100534.03;4971769;28;20037;-74
2023/08/31 01:49:00;;;;;;;2.38;0.65;;;;;;;8.62;59.72;100529.97;4977217;28;20508;-74
2023/08/31 01:51:25;;;;;;;1.40;0.80;;;;;;;8.71;59.38;100532.25;4982282;28;20113;-73
2023/08/31 01:53:51;;;;;;;2.65;1.00;;;;;;;8.72;59.18;100533.97;4974544;28;20420;-72
2023/08/31 01:56:17;;;;;;;1.58;1.08;;;;;;;8.70;59.20;100535.75;4982368;28;20578;-71
2023/08/31 01:58:42;;;;;;;4.57;1.10;;;;;;;8.52;59.56;100526.84;4983737;28;20057;-68
2023/08/31 02:01:08;;;;;;;2.83;1.00;;;;;;;8.52;59.70;100530.31;4977813;28;20031;-68
2023/08/31 02:03:34;;;;;;;2.35;0.80;;;;;;;8.40;59.85;100530.72;4962381;28;21824;-70
2023/08/31 02:05:59;;;;;;;4.50;1.40;;;;;;;8.48;59.67;100541.72;4979597;28;20046;-72
2023/08/31 02:08:24;;;;;;;1.48;0.50;;;;;;;8.53;59.28;100539.81;4980256;28;20084;-73
2023/08/31 02:10:54;;;;;;;4.25;1.15;;;;;;;8.43;59.40;100537.63;4978604;28;20503;-72
2023/08/31 02:13:22;;;;;;;4.40;0.73;;;;;;;8.43;59.35;100543.66;4994813;28;20038;-72
2023/08/31 02:15:51;;;;;;;3.67;0.68;;;;;;;8.38;59.39;100537.75;4993193;28;20061;-72
2023/08/31 02:18:16;;;;;;;2.75;0.93;;;;;;;8.38;59.32;100532.53;4975217;28;20039;-72
2023/08/31 02:20:42;;;;;;;1.85;0.60;;;;;;;8.34;59.51;100528.38;4985502;28;20065;-73
2023/08/31 02:23:09;;;;;;;1.20;0.73;;;;;;;8.34;59.15;100529.22;4998535;28;20466;-72
2023/08/31 02:25:35;;;;;;;1.85;0.65;;;;;;;8.32;58.99;100527.56;4987063;28;20062;-71
2023/08/31 02:28:00;;;;;;;2.83;0.55;;;;;;;8.28;58.88;100531.19;4983322;28;20120;-74
2023/08/31 02:30:26;;;;;;;1.15;0.70;;;;;;;8.29;59.03;100532.88;4982363;28;20148;-73
2023/08/31 02:32:51;;;;;;;4.38;0.70;;;;;;;8.25;58.99;100526.06;4980471;28;20567;-74
2023/08/31 02:35:18;;;;;;;3.33;1.00;;;;;;;8.25;59.07;100518.25;4998271;28;20271;-72
2023/08/31 02:37:43;;;;;;;1.52;0.52;;;;;;;8.19;59.33;100529.75;4982747;28;20587;-73
2023/08/31 02:40:10;;;;;;;3.38;0.52;;;;;;;8.20;59.01;100512.38;4999381;28;20042;-73
2023/08/31 02:42:36;;;;;;;4.43;1.15;;;;;;;8.20;59.03;100515.81;4967743;28;20138;-72
2023/08/31 02:45:02;;;;;;;1.90;0.70;;;;;;;8.20;59.20;100517.59;4968718;28;20038;-70
2023/08/31 02:47:28;;;;;;;1.85;0.63;;;;;;;8.02;59.35;100517.34;4981673;28;20053;-69
2023/08/31 02:49:53;;;;;;;4.57;1.35;;;;;;;8.07;59.44;100519.78;4981322;28;20230;-66
2023/08/31 02:52:21;;;;;;;3.00;0.95;;;;;;;7.94;59.90;100515.00;4977962;28;20095;-69
2023/08/31 02:54:47;;;;;;;3.30;0.63;;;;;;;8.04;59.47;100518.13;4989157;28;20169;-68
2023/08/31 02:57:12;;;;;;;1.38;0.60;;;;;;;7.90;59.90;100512.56;4972313;28;20145;-66
2023/08/31 02:59:38;;;;;;;6.03;1.08;;;;;;;7.79;60.02;100515.53;4979336;28;20133;-67
2023/08/31 03:02:04;;;;;;;5.90;0.60;;;;;;;7.93;59.68;100512.44;4987046;28;20034;-67
2023/08/31 03:04:29;;;;;;;1.75;0.70;;;;;;;7.88;59.89;100512.59;4996607;28;20106;-67
2023/08/31 03:06:54;;;;;;;1.63;0.80;;;;;;;7.93;59.79;100515.06;4996565;28;20705;-67
2023/08/31 03:09:20;;;;;;;6.32;0.70;;;;;;;7.81;59.88;100516.34;4978002;28;20199;-67
2023/08/31 03:11:46;;;;;;;3.03;0.60;;;;;;;7.79;59.79;100519.88;4982370;28;20026;-66
2023/08/31 03:14:12;;;;;;;1.70;0.75;;;;;;;7.77;59.92;100522.53;4985907;28;20427;-67
2023/08/31 03:16:37;;;;;;;1.58;0.85;;;;;;;7.86;59.31;100517.00;4977800;28;20030;-67
2023/08/31 03:19:03;;;;;;;3.45;1.23;;;;;;;7.87;59.37;100525.66;4992990;28;20592;-68
2023/08/31 03:21:29;;;;;;;2.30;0.82;;;;;;;7.95;59.48;100515.84;4994221;28;20026;-68
2023/08/31 03:23:54;;;;;;;4.10;0.93;;;;;;;7.90;59.29;100520.38;4963781;28;20527;-67
2023/08/31 03:26:20;;;;;;;3.72;0.80;;;;;;;7.92;59.44;100523.78;4995348;28;20117;-67
2023/08/31 03:28:45;;;;;;;3.10;0.85;;;;;;;7.80;59.53;100516.38;4981087;28;20046;-67
2023/08/31 03:31:11;;;;;;;5.80;0.60;;;;;;;7.72;59.80;100520.09;4978109;28;20190;-68
2023/08/31 03:33:36;;;;;;;2.20;0.50;;;;;;;7.77;59.81;100519.94;4979472;28;20038;-68
2023/08/31 03:36:04;;;;;;;3.53;1.38;;;;;;;7.50;60.64;100530.31;4981435;28;20030;-68
2023/08/31 03:38:31;;;;;;;5.45;0.98;;;;;;;7.78;59.56;100531.19;4985246;28;20561;-68
2023/08/31 03:40:59;;;;;;;1.40;0.60;;;;;;;7.83;59.33;100526.69;5000754;28;20036;-68
2023/08/31 03:43:24;;;;;;;2.10;0.80;;;;;;;7.73;59.55;100533.94;4985824;28;20212;-71
2023/08/31 03:45:57;;;;;;;3.20;0.50;;;;;;;7.74;59.25;100533.91;4980103;28;20034;-72
2023/08/31 03:48:24;;;;;;;2.65;1.10;;;;;;;7.59;59.98;100534.41;4959989;28;20049;-72
2023/08/31 03:50:51;;;;;;;2.08;0.90;;;;;;;7.61;59.87;100543.00;4977039;28;20241;-72
2023/08/31 03:53:17;;;;;;;3.28;0.57;;;;;;;7.65;59.13;100534.22;4994796;28;20056;-73
2023/08/31 03:55:42;;;;;;;1.88;1.10;;;;;;;7.65;59.10;100533.38;4981465;28;20129;-74
2023/08/31 03:58:08;;;;;;;2.15;1.10;;;;;;;7.60;59.08;100537.84;4982003;28;20129;-75
2023/08/31 04:00:34;;;;;;;8.50;1.15;;;;;;;7.59;59.41;100538.75;4983322;28;20968;-71
2023/08/31 04:03:00;;;;;;;6.55;0.70;;;;;;;7.58;58.98;100540.53;4985320;28;20508;-73
2023/08/31 04:05:25;;;;;;;3.17;0.77;;;;;;;7.53;59.71;100544.97;4988426;28;20036;-72
2023/08/31 04:07:51;;;;;;;4.70;1.05;;;;;;;7.52;60.00;100538.09;4963728;28;20520;-72
2023/08/31 04:10:16;;;;;;;2.90;0.60;;;;;;;7.48;59.50;100544.28;4971313;28;20907;-72
2023/08/31 04:12:42;;;;;;;3.30;0.90;;;;;;;7.57;59.48;100540.56;4982799;28;20038;-72
2023/08/31 04:15:09;;;;;;;1.83;0.65;;;;;;;7.04;61.24;100542.19;4981695;28;20068;-72
2023/08/31 04:17:35;;;;;;;3.67;1.05;;;;;;;7.20;61.01;100539.97;4993042;28;20046;-73
2023/08/31 04:20:05;;;;;;;5.60;1.30;;;;;;;7.06;61.45;100542.13;4982766;28;20045;-71
2023/08/31 04:22:31;;;;;;;4.35;1.10;;;;;;;7.43;60.14;100538.38;4995428;28;21555;-72
2023/08/31 04:24:56;;;;;;;4.03;0.77;;;;;;;7.49;60.05;100541.63;4978946;28;20096;-70
2023/08/31 04:27:22;;;;;;;3.35;0.52;;;;;;;7.30;60.74;100541.34;4981297;28;20103;-71
2023/08/31 04:29:48;;;;;;;3.63;1.42;;;;;;;7.47;60.25;100540.84;4981646;28;20038;-72
2023/08/31 04:32:13;;;;;;;1.10;0.30;;;;;;;7.33;60.87;100553.41;4981083;28;20023;-72
2023/08/31 04:34:39;;;;;;;5.93;0.80;;;;;;;7.17;61.19;100544.41;4979147;28;20511;-73
2023/08/31 04:37:04;;;;;;;7.47;1.02;;;;;;;7.43;60.38;100549.63;4982686;28;20563;-72
2023/08/31 04:39:30;;;;;;;4.72;0.60;;;;;;;7.57;59.86;100556.16;4994976;28;20459;-71
2023/08/31 04:41:55;;;;;;;2.50;0.57;;;;;;;7.62;59.79;100555.09;4982793;28;20526;-70
2023/08/31 04:44:21;;;;;;;1.40;0.40;;;;;;;7.55;59.62;100553.59;4961861;28;20061;-70
2023/08/31 04:46:46;;;;;;;3.03;0.88;;;;;;;7.40;60.60;100564.47;4981460;28;20064;-73
2023/08/31 04:49:12;;;;;;;1.13;0.32;;;;;;;7.54;60.25;100557.09;4981768;28;20628;-71
2023/08/31 04:51:39;;;;;;;2.97;0.93;;;;;;;7.71;59.73;100559.16;4973448;28;20034;-70
2023/08/31 04:54:05;;;;;;;3.67;0.98;;;;;;;7.70;59.92;100562.66;4996244;28;20042;-69
2023/08/31 04:56:32;;;;;;;1.70;0.73;;;;;;;7.83;59.75;100557.91;4979439;28;20038;-68
2023/08/31 04:58:59;;;;;;;2.63;0.70;;;;;;;7.73;60.01;100563.44;4980251;28;20046;-70
2023/08/31 05:01:25;;;;;;;6.82;0.68;;;;;;;7.88;59.76;100571.63;4977975;28;20026;-70
2023/08/31 05:03:50;;;;;;;2.75;0.70;;;;;;;8.00;59.53;100571.19;4985016;28;20561;-70
2023/08/31 05:06:16;;;;;;;1.30;0.57;;;;;;;8.05;59.31;100579.72;4982789;28;20036;-72
2023/08/31 05:08:42;;;;;;;2.40;0.60;;;;;;;7.99;59.84;100582.50;4980571;28;20044;-71
2023/08/31 05:11:07;;;;;;;7.93;0.95;;;;;;;8.18;59.22;100584.47;4978722;28;20029;-70
2023/08/31 05:13:35;;;;;;;2.00;0.50;;;;;;;8.23;59.29;100582.59;4972290;28;20496;-71
2023/08/31 05:16:01;;;;;;;2.20;0.52;;;;;;;8.35;59.21;100582.13;4981120;28;20285;-71
2023/08/31 05:18:28;;;;;;;2.55;0.50;;;;;;;8.38;58.83;100579.41;4963155;28;20038;-71
2023/08/31 05:20:54;;;;;;;1.45;0.45;;;;;;;8.31;58.86;100576.19;4979576;28;20141;-67
2023/08/31 05:23:20;;;;;;;5.43;0.55;;;;;;;8.28;59.12;100581.50;4978857;28;20034;-72
2023/08/31 05:25:46;;;;;;;1.73;0.45;;;;;;;8.30;59.34;100576.25;4968648;28;20489;-70
2023/08/31 05:28:11;;;;;;;1.02;0.40;;;;;;;8.52;58.90;100585.00;4959939;28;20112;-71
2023/08/31 05:30:45;;;;;;;5.68;1.05;;;;;;;8.82;60.70;100587.41;4978249;28;20647;-71
2023/08/31 05:33:11;;;;;;;5.28;1.48;;;;;;;10.73;54.82;100587.47;4997740;28;20041;-71
2023/08/31 05:35:36;;;;;;;4.90;0.80;;;;;;;12.50;52.23;100585.81;4976389;28;20214;-72
2023/08/31 05:38:03;;;;;;;4.10;0.98;;;;;;;13.78;47.91;100596.38;4964859;28;20212;-71
2023/08/31 05:40:29;;;;;;;2.13;0.55;;;;;;;14.25;44.82;100585.66;4979011;28;20052;-68
2023/08/31 05:42:55;;;;;;;3.00;0.47;;;;;;;14.66;44.41;100584.97;4980896;28;20592;-71
2023/08/31 05:45:21;;;;;;;1.25;0.55;;;;;;;14.83;42.51;100590.97;4981302;28;20030;-74
2023/08/31 05:47:46;;;;;;;3.30;0.70;;;;;;;15.37;42.90;100586.66;4975998;28;20073;-74
2023/08/31 05:50:12;;;;;;;3.58;0.50;;;;;;;15.21;42.19;100595.59;4976878;28;20037;-71
2023/08/31 05:52:38;;;;;;;2.38;0.57;;;;;;;15.53;41.02;100596.19;4965726;28;20038;-75
2023/08/31 05:55:04;;;;;;;0.90;0.40;;;;;;;16.10;42.43;100610.88;4996196;28;20033;-73
2023/08/31 05:57:30;;;;;;;2.25;0.93;;;;;;;16.47;38.71;100603.09;4982685;28;20557;-73
2023/08/31 05:59:57;;;;;;;1.38;0.32;;;;;;;16.28;40.22;100612.25;4983818;28;20034;-71
2023/08/31 06:02:23;;;;;;;3.40;0.40;;;;;;;16.99;37.13;100604.72;4982544;28;20049;-73
2023/08/31 06:04:51;;;;;;;2.58;0.57;;;;;;;16.99;37.94;100605.56;4949423;28;20022;-74
2023/08/31 06:07:18;;;;;;;0.95;0.38;;;;;;;16.69;39.03;100613.84;4970771;28;20045;-71
2023/08/31 06:09:49;;;;;;;6.07;0.70;;;;;;;16.65;40.26;100615.00;4981914;28;20029;-71
2023/08/31 06:12:15;;;;;;;1.13;0.30;;;;;;;17.63;37.50;100613.28;4983329;28;20037;-75
2023/08/31 06:14:43;;;;;;;1.65;0.40;;;;;;;18.10;37.49;100607.19;4986573;28;20030;-74
2023/08/31 06:17:11;;;;;;;6.20;0.50;;;;;;;18.86;36.05;100611.00;4975163;28;20045;-74
2023/08/31 06:19:41;;;;;;;2.73;1.13;;;;;;;18.82;36.19;100599.78;4977298;28;20410;-72
2023/08/31 06:22:11;;;;;;;2.10;0.43;;;;;;;19.27;35.55;100602.38;4966489;28;20038;-72
2023/08/31 06:24:42;;;;;;;2.15;0.70;;;;;;;16.40;39.24;100619.34;4981096;28;20057;-71
2023/08/31 06:27:21;;;;;;;1.10;0.70;;;;;;;18.66;36.29;100610.75;4974673;28;20117;-70
2023/08/31 06:29:46;;;;;;;1.90;0.70;;;;;;;18.31;36.52;100616.13;5000066;28;20117;-69
2023/08/31 06:32:12;;;;;;;4.03;0.82;;;;;;;19.70;35.37;100614.81;4980557;28;20125;-70
2023/08/31 06:34:40;;;;;;;2.15;0.85;;;;;;;17.71;37.68;100611.84;4980542;28;20025;-71
2023/08/31 06:37:14;;;;;;;2.47;0.63;;;;;;;19.76;34.71;100602.84;4995126;28;20042;-75
2023/08/31 06:39:42;;;;;;;2.58;0.60;;;;;;;19.95;34.44;100602.16;4987548;28;20527;-75
2023/08/31 06:42:08;;;;;;;3.58;0.45;;;;;;;21.19;33.21;100608.31;4970694;28;20100;-70
2023/08/31 06:44:39;;;;;;;3.58;1.25;;;;;;;22.21;31.85;100607.91;4950114;28;20061;-70
2023/08/31 06:47:08;;;;;;;1.13;0.40;;;;;;;21.41;30.92;100612.53;4964704;28;20042;-71
2023/08/31 06:49:34;;;;;;;3.20;0.43;;;;;;;20.04;34.34;100614.63;4978551;28;20117;-71
2023/08/31 06:52:02;;;;;;;1.85;0.73;;;;;;;19.34;34.11;100615.13;4973863;28;20037;-69
2023/08/31 06:54:27;;;;;;;1.98;0.60;;;;;;;17.24;39.28;100619.66;4986051;28;20083;-70
2023/08/31 06:56:59;;;;;;;2.30;0.80;;;;;;;15.00;42.55;100627.59;4987970;28;20046;-71
2023/08/31 06:59:24;;;;;;;3.45;0.63;;;;;;;14.55;44.02;100621.59;4977946;28;20713;-70
2023/08/31 07:01:52;;;;;;;4.47;1.05;;;;;;;14.28;45.50;100630.19;4983928;28;20037;-71
2023/08/31 07:04:22;;;;;;;2.00;1.08;;;;;;;14.33;45.28;100622.84;4976217;28;20037;-71
2023/08/31 07:06:48;;;;;;;2.55;1.52;;;;;;;13.29;47.95;100631.47;4985137;28;20578;-70
2023/08/31 07:09:14;;;;;;;3.00;1.15;;;;;;;12.90;49.60;100627.47;4977491;28;20042;-70
2023/08/31 07:11:39;;;;;;;7.13;1.60;;;;;;;12.71;48.80;100622.34;4995637;28;20037;-70
2023/08/31 07:14:07;;;;;;;3.35;1.20;;;;;;;13.11;49.38;100633.31;4979489;28;20038;-69
2023/08/31 07:16:40;;;;;;;2.72;1.05;;;;;;;12.90;49.53;100640.56;4978996;28;20519;-72
2023/08/31 07:19:16;;;;;;;3.95;1.52;;;;;;;12.33;50.79;100637.41;4947571;28;20129;-69
2023/08/31 07:21:46;;;;;;;2.22;1.15;;;;;;;13.10;50.25;100636.88;4978923;28;20030;-69
2023/08/31 07:24:12;;;;;;;3.38;1.33;;;;;;;13.70;48.16;100628.34;4981803;28;20132;-69
2023/08/31 07:26:51;;;;;;;3.05;1.23;;;;;;;13.80;48.11;100626.84;4982095;28;20465;-69
2023/08/31 07:29:21;;;;;;;5.63;1.30;;;;;;;13.90;46.93;100627.19;4969468;28;20136;-71
2023/08/31 07:31:51;;;;;;;1.80;1.27;;;;;;;13.34;48.45;100618.94;4978369;28;20037;-70
2023/08/31 07:34:21;;;;;;;1.20;0.60;;;;;;;13.17;48.74;100624.28;4983362;28;20050;-70
2023/08/31 07:36:50;;;;;;;1.58;0.77;;;;;;;12.62;50.51;100631.50;4978021;28;20720;-70
2023/08/31 07:39:18;;;;;;;1.65;1.40;;;;;;;12.22;51.87;100628.34;4968043;28;20046;-70
2023/08/31 07:41:46;;;;;;;2.78;1.23;;;;;;;12.25;52.37;100622.94;4982464;28;20038;-69
2023/08/31 07:44:17;;;;;;;4.60;1.38;;;;;;;12.32;51.43;100627.88;4977615;28;20627;-70
2023/08/31 07:46:44;;;;;;;4.03;1.67;;;;;;;11.42;53.81;100637.47;4977790;28;20504;-69
2023/08/31 07:49:10;;;;;;;3.05;1.10;;;;;;;12.01;52.51;100639.91;4957726;28;20049;-69
2023/08/31 07:51:37;;;;;;;4.82;0.98;;;;;;;11.95;52.97;100645.44;4976927;28;20034;-70
2023/08/31 07:54:05;;;;;;;3.35;2.03;;;;;;;11.99;52.86;100649.59;4978283;28;20076;-69
2023/08/31 07:56:40;;;;;;;3.92;1.95;;;;;;;11.55;53.67;100648.16;4978146;28;20042;-70
2023/08/31 07:59:05;;;;;;;3.55;1.42;;;;;;;11.78;54.08;100651.50;4948643;28;20492;-69
2023/08/31 08:01:33;;;;;;;2.55;1.83;;;;;;;11.77;53.85;100650.63;4980020;28;20042;-71
2023/08/31 08:04:01;;;;;;;4.65;2.08;;;;;;;11.31;55.57;100657.19;4978431;28;20054;-69
2023/08/31 08:06:28;;;;;;;6.97;2.08;;;;;;;11.81;54.72;100665.28;4980520;28;20033;-70
2023/08/31 08:08:53;;;;;;;3.92;2.47;;;;;;;11.87;53.57;100665.00;4953985;28;21505;-69
2023/08/31 08:11:19;;;;;;;5.10;2.85;;;;;;;12.18;53.39;100671.34;4980982;28;20088;-69
2023/08/31 08:13:57;;;;;;;6.00;2.20;;;;;;;12.40;52.66;100672.84;4975135;28;20115;-69
2023/08/31 08:16:35;;;;;;;6.40;2.03;;;;;;;12.75;52.40;100680.72;4978945;28;20432;-70
2023/08/31 08:19:06;;;;;;;3.17;1.90;;;;;;;12.18;52.97;100687.06;4969329;28;20053;-69
2023/08/31 08:21:34;;;;;;;6.80;1.58;;;;;;;12.72;53.16;100683.53;4982675;28;20037;-70
2023/08/31 08:24:02;;;;;;;5.20;2.60;;;;;;;12.64;52.82;100681.25;4975483;28;20152;-69
2023/08/31 08:26:30;;;;;;;4.85;1.90;;;;;;;16.26;46.89;100682.72;4992166;28;20034;-71
2023/08/31 08:28:58;;;;;;;2.65;1.52;;;;;;;18.78;40.43;100683.06;4974518;28;21481;-69
2023/08/31 08:31:24;;;;;;;4.00;0.90;;;;;;;17.72;39.07;100677.84;4978290;28;20937;-71
2023/08/31 08:33:49;;;;;;;2.65;1.23;;;;;;;18.56;40.48;100686.53;4975317;28;20046;-69
2023/08/31 08:36:20;;;;;;;3.25;1.17;;;;;;;18.61;39.26;100694.13;4963499;28;20061;-69
2023/08/31 08:38:50;;;;;;;1.92;1.73;;;;;;;17.54;40.95;100687.94;4982051;28;20130;-69
2023/08/31 08:41:25;;;;;;;3.33;1.20;;;;;;;17.84;41.91;100689.28;4978102;28;20083;-70
2023/08/31 08:43:56;;;;;;;2.72;1.30;;;;;;;16.98;43.56;100703.38;4975983;28;20061;-69
2023/08/31 08:46:23;;;;;;;5.88;1.35;;;;;;;16.26;45.52;100703.81;4977914;28;20033;-71
2023/08/31 08:48:51;;;;;;;2.78;0.80;;;;;;;15.66;46.10;100701.59;4955600;28;20404;-69
2023/08/31 08:51:17;;;;;;;4.47;1.95;;;;;;;15.11;48.15;100706.72;4971704;28;20026;-70
2023/08/31 08:53:46;;;;;;;2.92;1.25;;;;;;;14.30;50.71;100707.19;4966907;28;20042;-69
2023/08/31 08:56:16;;;;;;;2.00;1.20;;;;;;;14.33;50.07;100711.41;4976113;28;20061;-69
2023/08/31 08:58:41;;;;;;;3.85;1.30;;;;;;;14.39;50.15;100718.06;4963129;28;20735;-70
2023/08/31 09:01:17;;;;;;;5.07;1.30;;;;;;;14.06;50.86;100722.59;4977758;28;20030;-69
2023/08/31 09:03:43;;;;;;;4.28;1.35;;;;;;;13.92;51.00;100728.63;4971563;28;20045;-70
2023/08/31 09:06:10;;;;;;;6.32;1.90;;;;;;;12.80;52.92;100739.03;4996159;28;20072;-71
2023/08/31 09:08:40;;;;;;;2.10;1.70;;;;;;;12.93;53.09;100739.25;4954790;28;20515;-70
2023/08/31 09:11:19;;;;;;;3.13;1.90;;;;;;;12.75;53.09;100741.03;4965381;28;20097;-69
2023/08/31 09:13:44;;;;;;;4.25;1.55;;;;;;;12.85;53.30;100743.13;4973120;28;20528;-70
2023/08/31 09:16:23;;;;;;;4.75;2.42;;;;;;;11.92;55.77;100747.72;4980925;28;20176;-69
2023/08/31 09:18:49;;;;;;;4.53;1.60;;;;;;;12.25;55.57;100751.34;4952496;28;20038;-69
2023/08/31 09:21:14;;;;;;;6.80;2.17;;;;;;;12.06;56.40;100747.91;4978158;28;20034;-70
2023/08/31 09:23:40;;;;;;;3.97;2.25;;;;;;;12.19;56.34;100754.25;4964611;28;20044;-72
2023/08/31 09:26:05;;;;;;;4.65;2.22;;;;;;;12.13;56.44;100770.25;4990656;28;20616;-69
2023/08/31 09:28:32;;;;;;;4.38;2.05;;;;;;;12.20;56.02;100766.44;4942031;28;20084;-69
2023/08/31 09:31:18;;;;;;;3.83;3.25;;;;;;;12.07;56.60;100763.56;4978624;28;20729;-69
2023/08/31 09:33:51;;;;;;;4.78;2.55;;;;;;;12.11;56.47;100751.19;4984327;28;20042;-70
2023/08/31 09:36:17;;;;;;;6.45;2.42;;;;;;;11.98;56.47;100750.06;4978942;28;20046;-72
2023/08/31 09:38:47;;;;;;;4.97;1.70;;;;;;;12.02;56.70;100746.34;4979292;28;20034;-72
2023/08/31 09:41:13;;;;;;;3.88;1.42;;;;;;;12.12;56.52;100747.63;4983236;28;20048;-72
2023/08/31 09:43:45;;;;;;;3.22;1.48;;;;;;;12.13;55.96;100751.91;4975795;28;20046;-72
2023/08/31 09:46:13;;;;;;;5.65;2.00;;;;;;;12.09;55.88;100758.25;4988086;28;20381;-70
2023/08/31 09:48:45;;;;;;;3.95;1.63;;;;;;;11.99;55.21;100762.22;4965792;28;20553;-72
2023/08/31 09:51:20;;;;;;;6.05;1.35;;;;;;;11.65;55.22;100755.94;4987993;28;20592;-72
2023/08/31 09:53:49;;;;;;;3.90;0.98;;;;;;;11.49;55.65;100739.25;4971840;28;20171;-72
2023/08/31 09:56:21;;;;;;;2.72;0.50;;;;;;;11.53;55.82;100746.88;4983694;28;20447;-72
2023/08/31 09:58:53;;;;;;;0.73;0.40;;;;;;;11.65;55.36;100766.41;4978995;28;20064;-70
2023/08/31 10:01:18;;;;;;;0.57;0.20;;;;;;;11.76;54.83;100764.13;4985896;28;20208;-70
2023/08/31 10:03:48;;;;;;;1.33;0.40;;;;;;;11.62;55.31;100750.81;4973755;28;20054;-70
2023/08/31 10:06:13;;;;;;;1.20;0.45;;;;;;;11.57;55.42;100756.25;4964490;28;20026;-71
2023/08/31 10:08:43;;;;;;;2.97;0.30;;;;;;;11.69;55.46;100773.19;4972532;28;20054;-70
2023/08/31 10:11:12;;;;;;;1.83;0.52;;;;;;;11.76;55.22;100785.06;4981326;28;20563;-70
2023/08/31 10:13:41;;;;;;;1.58;0.82;;;;;;;11.77;55.35;100789.41;4978636;28;20294;-70
2023/08/31 10:16:07;;;;;;;1.70;0.50;;;;;;;11.76;55.25;100782.47;4979689;28;20450;-71
2023/08/31 10:18:35;;;;;;;1.73;1.48;;;;;;;11.65;55.16;100797.81;4967196;28;20054;-71
2023/08/31 10:21:02;;;;;;;2.95;0.93;;;;;;;11.66;55.56;100808.22;4978715;28;20045;-72
2023/08/31 10:23:28;;;;;;;3.50;0.40;;;;;;;11.52;55.97;100805.38;4994542;28;20053;-71
2023/08/31 10:25:57;;;;;;;0.88;0.45;;;;;;;11.41;56.20;100792.75;4984237;28;20026;-70
2023/08/31 10:28:28;;;;;;;2.90;0.43;;;;;;;11.11;56.74;100783.69;4973022;28;20096;-70
2023/08/31 10:31:08;;;;;;;1.08;0.43;;;;;;;10.91;56.95;100767.06;4979623;28;20073;-70
2023/08/31 10:33:41;;;;;;;1.25;0.40;;;;;;;10.82;57.68;100770.94;4975472;28;20061;-72
2023/08/31 10:36:13;;;;;;;2.95;0.80;;;;;;;10.84;57.69;100769.09;4987431;28;20156;-72
2023/08/31 10:38:44;;;;;;;1.35;0.50;;;;;;;10.80;58.07;100766.66;4966595;28;20124;-70
2023/08/31 10:41:18;;;;;;;0.90;0.30;;;;;;;10.79;58.25;100767.56;4980637;28;20046;-70
2023/08/31 10:44:20;;;;;;;0.77;0.35;;;;;;;10.88;58.40;100777.66;4973160;28;20038;-70
2023/08/31 10:46:52;;;;;;;1.02;0.22;;;;;;;10.89;57.90;100774.13;4975483;28;20041;-70
2023/08/31 10:49:28;;;;;;;3.83;0.40;;;;;;;10.95;57.95;100778.22;4979821;28;20046;-70
2023/08/31 10:51:56;;;;;;;1.48;0.63;;;;;;;11.18;58.32;100772.03;4985103;28;20033;-72
2023/08/31 10:54:25;;;;;;;2.00;0.30;;;;;;;11.55;57.82;100772.97;4972341;28;20085;-71
2023/08/31 10:57:06;;;;;;;1.45;0.28;;;;;;;11.91;57.01;100769.59;4978844;28;20046;-71
2023/08/31 10:59:53;;;;;;;0.77;0.43;;;;;;;12.12;55.28;100763.34;4947416;28;20252;-71
2023/08/31 11:02:35;;;;;;;1.20;0.10;;;;;;;12.37;53.76;100768.22;4952382;28;20048;-71
2023/08/31 11:05:20;;;;;;;0.98;0.10;;;;;;;12.35;53.00;100763.97;4954687;28;20054;-70
2023/08/31 11:07:52;;;;;;;0.55;0.35;;;;;;;12.95;54.46;100764.47;4957222;28;20038;-70
2023/08/31 11:10:26;;;;;;;0.45;0.10;;;;;;;13.36;52.92;100764.09;4993005;28;20041;-71
2023/08/31 11:12:57;;;;;;;1.23;0.10;;;;;;;14.36;53.20;100745.41;4985591;28;20188;-71
2023/08/31 11:15:29;;;;;;;0.65;0.10;;;;;;;15.58;50.30;100752.97;4980470;28;20045;-70
2023/08/31 11:17:55;;;;;;;0.82;0.10;;;;;;;16.29;47.60;100753.72;4952320;28;20045;-71
2023/08/31 11:20:23;;;;;;;0.20;0.10;;;;;;;17.18;46.39;100760.03;4989691;28;20049;-71
2023/08/31 11:22:53;;;;;;;1.33;0.10;;;;;;;17.54;43.96;100751.38;4983999;28;20041;-71
2023/08/31 11:25:19;;;;;;;0.30;0.10;;;;;;;18.40;44.10;100752.19;4976931;28;20489;-72
2023/08/31 11:27:55;;;;;;;1.00;0.13;;;;;;;18.19;42.48;100746.69;4994599;28;20072;-71
2023/08/31 11:30:21;;;;;;;1.17;0.10;;;;;;;18.63;41.94;100753.06;4982440;28;20038;-71
2023/08/31 11:32:47;;;;;;;0.75;0.30;;;;;;;18.28;39.47;100748.66;4983323;28;20531;-71
2023/08/31 11:35:15;;;;;;;1.65;0.10;;;;;;;17.72;40.62;100761.56;4993608;28;20137;-72